EEKA

Kärdla Airport

Kärdla, Estonia
METAR EEKA 231050Z 15012G22KT 8000 -SHRA BKN011 SCT026CB 08/05 Q0985
Observed Flight Rules
Oct-23 @ 10:50 UTC (60 minutes ago) Marginal Visual Flight Rules
Wind Visibility Clouds Conditions
150° at 12 knots
 Gusting to 22 knots
7,998 meters
  • Broken at 1,100' AGL
  • Scattered at 2,600' AGL
  • Light Rain
Temperatures Readings
Current 8°C / 46°F
Dewpoint 5°C / 41°F
Humidity 82%
Altimeter 29.08" Hg
Pressure 985 hPa
Elevation 4
METAR EEKA 231050Z 15012G22KT 8000 -SHRA BKN011 SCT026CB 08/05 Q0985
Observed Flight Rules
Oct-23 @ 10:50 UTC
(60 minutes ago)
MVFR
Wind Visibility
150° at 12 knots
 Gusting to 22 knots
7,998 meters
Clouds
  • Broken at 1,100' AGL
  • Scattered at 2,600' AGL
Conditions
  • Light Rain
Temperature Dewpoint
8°C / 46°F 5°C / 41°F
Humidity Altimeter Pressure
82% 29.08" Hg 985 hPa